createdAt,value
2022-10-07T00:00:46.192Z,8.70
2022-10-07T00:03:34.218Z,7.55
2022-10-07T00:06:22.419Z,7.60
2022-10-07T00:09:09.479Z,11.32
2022-10-07T00:11:56.679Z,9.05
2022-10-07T00:14:43.869Z,14.88
2022-10-07T00:17:30.987Z,7.20
2022-10-07T00:20:18.418Z,11.10
2022-10-07T00:23:07.195Z,9.98
2022-10-07T00:25:54.384Z,7.63
2022-10-07T00:28:41.978Z,8.95
2022-10-07T00:31:33.484Z,8.77
2022-10-07T00:37:08.804Z,9.35
2022-10-07T00:39:57.621Z,7.90
2022-10-07T00:42:44.803Z,7.40
2022-10-07T00:45:31.996Z,8.10
2022-10-07T00:48:26.490Z,8.77
2022-10-07T00:51:17.039Z,10.98
2022-10-07T00:54:15.760Z,10.18
2022-10-07T00:57:03.595Z,8.38
2022-10-07T00:59:51.812Z,11.45
2022-10-07T01:02:39.729Z,9.95
2022-10-07T01:05:26.881Z,7.32
2022-10-07T01:08:15.679Z,5.85
2022-10-07T01:11:20.820Z,9.60
2022-10-07T01:14:15.534Z,7.90
2022-10-07T01:17:20.829Z,11.57
2022-10-07T01:20:29.649Z,10.60
2022-10-07T01:24:05.308Z,13.15
2022-10-07T01:26:58.244Z,7.28
2022-10-07T01:30:03.188Z,5.78
2022-10-07T01:33:02.836Z,5.65
2022-10-07T01:35:52.034Z,6.85
2022-10-07T01:38:44.861Z,8.15
2022-10-07T01:41:33.013Z,8.32
2022-10-07T01:44:20.246Z,5.78
2022-10-07T01:47:07.415Z,8.07
2022-10-07T01:49:54.700Z,7.28
2022-10-07T01:53:04.834Z,6.90
2022-10-07T01:56:19.837Z,8.85
2022-10-07T01:59:22.936Z,7.13
2022-10-07T02:02:42.986Z,9.27
2022-10-07T02:05:54.470Z,8.93
2022-10-07T02:08:55.065Z,10.38
2022-10-07T02:11:46.549Z,7.53
2022-10-07T02:14:44.267Z,14.35
2022-10-07T02:17:35.422Z,7.70
2022-10-07T02:20:26.625Z,7.40
2022-10-07T02:23:16.375Z,8.57
2022-10-07T02:26:06.140Z,8.35
2022-10-07T02:28:55.274Z,9.13
2022-10-07T02:31:45.660Z,7.45
2022-10-07T02:34:34.729Z,4.35
2022-10-07T02:37:27.162Z,6.63
2022-10-07T02:40:15.175Z,6.85
2022-10-07T02:43:08.392Z,8.15
2022-10-07T02:46:07.284Z,9.25
2022-10-07T02:49:05.801Z,6.60
2022-10-07T02:52:06.779Z,7.35
2022-10-07T02:54:59.534Z,8.27
2022-10-07T02:57:51.530Z,8.98
2022-10-07T03:00:42.723Z,8.10
2022-10-07T03:03:30.503Z,7.38
2022-10-07T03:06:25.859Z,6.70
2022-10-07T03:09:13.510Z,8.10
2022-10-07T03:12:01.794Z,8.82
2022-10-07T03:14:49.975Z,6.47
2022-10-07T03:17:39.994Z,5.78
2022-10-07T03:20:28.283Z,6.43
2022-10-07T03:23:15.365Z,11.50
2022-10-07T03:26:02.460Z,7.47
2022-10-07T03:28:49.535Z,6.70
2022-10-07T03:31:37.346Z,6.63
2022-10-07T03:34:26.763Z,11.15
2022-10-07T03:37:14.078Z,6.93
2022-10-07T03:40:01.206Z,6.32
2022-10-07T03:42:49.967Z,5.82
2022-10-07T03:45:44.273Z,5.15
2022-10-07T03:48:31.522Z,6.85
2022-10-07T03:51:18.803Z,7.05
2022-10-07T03:54:06.607Z,7.68
2022-10-07T03:56:54.756Z,10.88
2022-10-07T03:59:42.049Z,7.05
2022-10-07T04:02:29.311Z,15.23
2022-10-07T04:05:18.582Z,9.38
2022-10-07T04:08:05.799Z,8.32
2022-10-07T04:10:53.495Z,5.47
2022-10-07T04:13:40.692Z,5.97
2022-10-07T04:16:28.754Z,9.85
2022-10-07T04:19:17.342Z,9.75
2022-10-07T04:22:08.883Z,5.88
2022-10-07T04:25:15.031Z,11.63
2022-10-07T04:28:07.363Z,6.30
2022-10-07T04:30:56.142Z,5.82
2022-10-07T04:33:51.158Z,4.57
2022-10-07T04:36:45.517Z,6.25
2022-10-07T04:39:59.167Z,6.68
2022-10-07T04:43:01.478Z,4.22
2022-10-07T04:45:54.451Z,4.32
2022-10-07T04:48:46.074Z,6.13
2022-10-07T04:51:36.006Z,4.75
2022-10-07T04:54:23.195Z,8.15
2022-10-07T04:57:14.393Z,5.28
2022-10-07T05:00:04.578Z,7.10
2022-10-07T05:02:53.149Z,4.53
2022-10-07T05:05:43.669Z,3.47
2022-10-07T05:08:31.977Z,7.28
2022-10-07T05:11:20.533Z,5.35
2022-10-07T05:14:13.841Z,7.25
2022-10-07T05:17:01.642Z,5.57
2022-10-07T05:19:53.203Z,4.57
2022-10-07T05:22:40.288Z,7.18
2022-10-07T05:25:27.520Z,6.22
2022-10-07T05:28:15.980Z,15.85
2022-10-07T05:31:09.050Z,8.65
2022-10-07T05:33:56.469Z,5.47
2022-10-07T05:36:45.937Z,5.85
2022-10-07T05:39:33.442Z,10.00
2022-10-07T05:42:32.417Z,9.32
2022-10-07T05:45:20.434Z,9.73
2022-10-07T05:48:07.624Z,5.43
2022-10-07T05:50:55.307Z,6.40
2022-10-07T05:53:43.025Z,7.20
2022-10-07T05:56:30.899Z,10.95
2022-10-07T05:59:20.577Z,5.28
2022-10-07T06:02:14.533Z,5.35
2022-10-07T06:05:02.855Z,6.35
2022-10-07T06:07:51.681Z,8.00
2022-10-07T06:10:57.559Z,9.77
2022-10-07T06:13:49.135Z,6.43
2022-10-07T06:16:36.490Z,4.45
2022-10-07T06:19:23.739Z,9.98
2022-10-07T06:22:14.563Z,5.18
2022-10-07T06:25:02.728Z,5.38
2022-10-07T06:27:54.986Z,6.57
2022-10-07T06:30:43.886Z,5.50
2022-10-07T06:33:31.777Z,8.05
2022-10-07T06:36:19.559Z,4.50
2022-10-07T06:39:08.166Z,5.93
2022-10-07T06:42:00.661Z,7.15
2022-10-07T06:45:07.063Z,6.47
2022-10-07T06:47:55.702Z,8.45
2022-10-07T06:51:03.451Z,5.70
2022-10-07T06:53:56.578Z,5.13
2022-10-07T06:56:44.131Z,7.38
2022-10-07T06:59:32.101Z,6.95
2022-10-07T07:02:33.479Z,5.95
2022-10-07T07:05:21.229Z,5.57
2022-10-07T07:08:08.643Z,6.90
2022-10-07T07:10:56.571Z,5.35
2022-10-07T07:13:45.979Z,5.07
2022-10-07T07:16:35.322Z,5.07
2022-10-07T07:19:22.490Z,5.43
2022-10-07T07:22:10.024Z,5.82
2022-10-07T07:24:58.565Z,6.22
2022-10-07T07:27:53.822Z,6.15
2022-10-07T07:30:44.294Z,5.95
2022-10-07T07:33:31.522Z,5.38
2022-10-07T07:36:22.660Z,5.40
2022-10-07T07:39:12.210Z,8.02
2022-10-07T07:41:59.966Z,9.98
2022-10-07T07:44:48.438Z,5.90
2022-10-07T07:47:37.931Z,7.07
2022-10-07T07:50:27.199Z,6.18
2022-10-07T07:53:16.258Z,3.97
2022-10-07T07:56:03.662Z,9.82
2022-10-07T07:58:50.956Z,3.92
2022-10-07T08:01:38.974Z,8.48
2022-10-07T08:04:26.949Z,8.07
2022-10-07T08:07:14.424Z,8.05
2022-10-07T08:12:52.855Z,5.45
2022-10-07T08:15:40.691Z,5.82
2022-10-07T08:18:28.461Z,6.15
2022-10-07T08:21:18.702Z,7.45
2022-10-07T08:24:10.091Z,5.95
2022-10-07T08:26:59.186Z,7.22
2022-10-07T08:29:46.833Z,6.20
2022-10-07T08:32:34.605Z,1999.90
2022-10-07T08:35:22.221Z,5.80
2022-10-07T08:38:14.476Z,5.20
2022-10-07T08:41:34.534Z,5.78
2022-10-07T08:44:41.231Z,6.50
2022-10-07T08:47:39.917Z,6.78
2022-10-07T08:50:42.736Z,5.60
2022-10-07T08:53:37.017Z,7.75
2022-10-07T08:56:25.874Z,5.32
2022-10-07T08:59:22.343Z,7.82
2022-10-07T09:02:22.136Z,8.20
2022-10-07T09:05:32.802Z,6.82
2022-10-07T09:08:43.762Z,5.80
2022-10-07T09:14:29.704Z,8.38
2022-10-07T09:17:34.850Z,10.27
2022-10-07T09:20:31.894Z,7.80
2022-10-07T09:23:24.284Z,5.53
2022-10-07T09:26:13.763Z,5.18
2022-10-07T09:29:01.130Z,7.78
2022-10-07T09:31:49.651Z,6.07
2022-10-07T09:34:37.277Z,7.00
2022-10-07T09:37:27.889Z,5.30
2022-10-07T09:40:30.947Z,8.48
2022-10-07T09:43:19.752Z,8.05
2022-10-07T09:46:25.823Z,56.17
2022-10-07T09:49:45.275Z,4.32
2022-10-07T09:52:34.373Z,8.40
2022-10-07T09:55:43.675Z,9.15
2022-10-07T09:58:32.300Z,6.97
2022-10-07T10:01:19.943Z,10.52
2022-10-07T10:04:17.065Z,7.22
2022-10-07T10:07:20.387Z,1153.60
2022-10-07T10:10:22.740Z,7.63
2022-10-07T10:13:25.944Z,6.97
2022-10-07T10:16:26.089Z,8.45
2022-10-07T10:19:26.742Z,6.82
2022-10-07T10:22:30.109Z,7.60
2022-10-07T10:25:57.382Z,6.00
2022-10-07T10:29:20.306Z,7.25
2022-10-07T10:32:29.098Z,78.50
2022-10-07T10:35:52.062Z,1999.90
2022-10-07T10:38:50.171Z,1999.90
2022-10-07T10:41:54.832Z,1999.90
2022-10-07T10:44:48.844Z,1999.90
2022-10-07T10:48:29.489Z,1999.90
2022-10-07T10:51:31.736Z,1999.90
2022-10-07T10:54:27.079Z,1999.90
2022-10-07T10:57:35.602Z,1999.90
2022-10-07T11:00:23.705Z,1999.90
2022-10-07T11:03:28.606Z,1999.90
2022-10-07T11:06:18.308Z,1999.90
2022-10-07T11:09:15.450Z,1999.90
2022-10-07T11:12:06.101Z,1999.90
2022-10-07T11:15:20.156Z,1999.90
2022-10-07T11:18:21.861Z,1999.90
2022-10-07T11:21:16.459Z,1999.90
2022-10-07T11:24:20.223Z,1999.90
2022-10-07T11:27:23.083Z,1999.90
2022-10-07T11:34:07.206Z,1999.90
2022-10-07T11:37:21.895Z,2.20
2022-10-07T11:40:10.091Z,5.22
2022-10-07T11:43:06.152Z,6.53
2022-10-07T11:46:01.083Z,9.30
2022-10-07T11:49:09.273Z,6.55
2022-10-07T11:52:09.399Z,1999.90
2022-10-07T11:55:25.873Z,1999.90
2022-10-07T11:58:33.946Z,1999.90
2022-10-07T12:01:30.576Z,1999.90
2022-10-07T12:04:25.934Z,1999.90
2022-10-07T12:07:35.250Z,1999.90
2022-10-07T12:10:32.087Z,1999.90
2022-10-07T12:13:20.976Z,1999.90
2022-10-07T12:16:24.185Z,1999.90
2022-10-07T12:19:11.936Z,1999.90
2022-10-07T12:22:05.760Z,1999.90
2022-10-07T12:25:29.466Z,1999.90
2022-10-07T12:28:48.903Z,1999.90
2022-10-07T12:31:42.624Z,1999.90
2022-10-07T12:34:39.646Z,1999.90
2022-10-07T12:37:46.118Z,10.90
2022-10-07T12:40:35.860Z,5.65
2022-10-07T12:43:55.146Z,6.60
2022-10-07T12:46:58.090Z,8.35
2022-10-07T12:49:59.380Z,12.45
2022-10-07T12:52:53.816Z,8.25
2022-10-07T12:55:47.270Z,9.65
2022-10-07T12:58:59.601Z,16.50
2022-10-07T13:02:12.984Z,75.68
2022-10-07T13:05:31.245Z,303.10
2022-10-07T13:08:47.108Z,1999.90
2022-10-07T13:12:00.054Z,1999.90
2022-10-07T13:15:08.282Z,1999.90
2022-10-07T13:18:08.528Z,94.13
2022-10-07T13:21:25.284Z,1999.90
2022-10-07T13:24:17.489Z,480.65
2022-10-07T13:27:09.006Z,1999.90
2022-10-07T13:29:59.118Z,1999.90
2022-10-07T13:32:47.031Z,1999.90
2022-10-07T13:35:39.643Z,96.45
2022-10-07T13:38:28.960Z,121.47
2022-10-07T13:41:21.861Z,123.53
2022-10-07T13:44:16.215Z,9.18
2022-10-07T13:47:07.269Z,9.00
2022-10-07T13:49:55.363Z,6.43
2022-10-07T13:52:47.217Z,9.07
2022-10-07T13:55:36.249Z,6.22
2022-10-07T13:58:23.850Z,6.22
2022-10-07T14:01:12.152Z,8.10
2022-10-07T14:04:25.796Z,8.65
2022-10-07T14:07:13.299Z,13.15
2022-10-07T14:10:11.190Z,8.90
2022-10-07T14:13:03.432Z,10.40
2022-10-07T14:15:53.942Z,10.57
2022-10-07T14:18:44.409Z,9.45
2022-10-07T14:21:41.039Z,7.70
2022-10-07T14:24:29.697Z,7.90
2022-10-07T14:27:54.686Z,9.35
2022-10-07T14:31:01.236Z,7.63
2022-10-07T14:34:15.347Z,9.93
2022-10-07T14:37:27.322Z,7.88
2022-10-07T14:40:23.604Z,7.10
2022-10-07T14:43:11.094Z,7.68
2022-10-07T14:46:08.046Z,8.65
2022-10-07T14:48:55.332Z,8.25
2022-10-07T14:51:44.898Z,8.63
2022-10-07T14:54:34.177Z,9.10
2022-10-07T14:57:22.806Z,8.73
2022-10-07T15:00:24.933Z,8.27
2022-10-07T15:03:13.948Z,9.93
2022-10-07T15:06:01.615Z,9.30
2022-10-07T15:08:50.422Z,9.98
2022-10-07T15:11:38.019Z,8.55
2022-10-07T15:14:25.323Z,9.88
2022-10-07T15:17:14.381Z,7.18
2022-10-07T15:20:02.528Z,9.23
2022-10-07T15:22:51.442Z,13.25
2022-10-07T15:25:40.498Z,10.82
2022-10-07T15:28:33.178Z,10.75
2022-10-07T15:31:22.096Z,7.20
2022-10-07T15:34:10.764Z,8.73
2022-10-07T15:36:58.719Z,10.68
2022-10-07T15:39:46.362Z,11.45
2022-10-07T15:42:33.816Z,12.15
2022-10-07T15:45:21.071Z,11.50
2022-10-07T15:48:08.702Z,8.00
2022-10-07T15:50:57.803Z,11.10
2022-10-07T15:53:45.272Z,8.02
2022-10-07T15:56:33.653Z,10.93
2022-10-07T15:59:21.427Z,8.60
2022-10-07T16:02:14.940Z,13.35
2022-10-07T16:05:02.612Z,9.55
2022-10-07T16:07:50.808Z,8.02
2022-10-07T16:10:38.053Z,10.93
2022-10-07T16:13:25.596Z,10.30
2022-10-07T16:16:25.187Z,9.77
2022-10-07T16:19:12.793Z,10.30
2022-10-07T16:22:00.810Z,11.70
2022-10-07T16:24:48.002Z,7.75
2022-10-07T16:27:53.777Z,10.68
2022-10-07T16:30:49.183Z,8.48
2022-10-07T16:33:36.363Z,10.07
2022-10-07T16:36:25.809Z,10.73
2022-10-07T16:39:13.526Z,9.10
2022-10-07T16:42:01.226Z,12.70
2022-10-07T16:44:50.842Z,12.43
2022-10-07T16:47:38.080Z,11.02
2022-10-07T16:50:25.241Z,10.32
2022-10-07T16:53:12.913Z,9.73
2022-10-07T16:56:04.746Z,10.07
2022-10-07T16:58:57.325Z,9.35
2022-10-07T17:01:44.406Z,12.43
2022-10-07T17:04:31.482Z,15.65
2022-10-07T17:07:18.734Z,11.10
2022-10-07T17:10:06.441Z,11.98
2022-10-07T17:12:53.643Z,14.63
2022-10-07T17:15:40.828Z,11.88
2022-10-07T17:18:28.637Z,12.50
2022-10-07T17:21:15.775Z,11.80
2022-10-07T17:24:04.139Z,12.23
2022-10-07T17:26:55.097Z,12.48
2022-10-07T17:29:42.227Z,16.40
2022-10-07T17:32:29.528Z,12.32
2022-10-07T17:35:17.291Z,13.60
2022-10-07T17:38:07.162Z,13.27
2022-10-07T17:40:54.869Z,18.05
2022-10-07T17:43:42.087Z,16.80
2022-10-07T17:46:33.218Z,12.90
2022-10-07T17:49:20.668Z,14.07
2022-10-07T17:52:07.800Z,17.88
2022-10-07T17:54:56.603Z,17.05
2022-10-07T17:57:43.886Z,14.82
2022-10-07T18:00:32.322Z,14.35
2022-10-07T18:03:19.524Z,15.48
2022-10-07T18:06:08.645Z,14.57
2022-10-07T18:08:56.419Z,13.68
2022-10-07T18:12:03.550Z,11.52
2022-10-07T18:15:09.325Z,19.52
2022-10-07T18:17:57.405Z,16.15
2022-10-07T18:20:44.826Z,16.83
2022-10-07T18:23:32.595Z,15.90
2022-10-07T18:26:19.841Z,17.38
2022-10-07T18:29:06.899Z,13.98
2022-10-07T18:31:54.283Z,17.55
2022-10-07T18:34:41.503Z,12.88
2022-10-07T18:37:28.630Z,15.05
2022-10-07T18:40:15.763Z,11.95
2022-10-07T18:43:02.835Z,14.38
2022-10-07T18:46:04.762Z,16.45
2022-10-07T18:48:52.178Z,12.50
2022-10-07T18:51:40.331Z,13.05
2022-10-07T18:54:27.468Z,10.85
2022-10-07T18:57:14.567Z,13.52
2022-10-07T19:00:01.650Z,12.35
2022-10-07T19:02:51.168Z,10.95
2022-10-07T19:05:39.757Z,12.05
2022-10-07T19:08:27.010Z,14.43
2022-10-07T19:11:16.682Z,17.65
2022-10-07T19:14:03.802Z,14.30
2022-10-07T19:16:51.037Z,11.73
2022-10-07T19:19:40.887Z,14.32
2022-10-07T19:22:28.256Z,14.90
2022-10-07T19:25:33.958Z,17.90
2022-10-07T19:28:21.566Z,13.80
2022-10-07T19:31:23.180Z,13.05
2022-10-07T19:34:16.103Z,17.40
2022-10-07T19:37:03.616Z,14.52
2022-10-07T19:39:50.824Z,13.77
2022-10-07T19:42:37.987Z,13.63
2022-10-07T19:45:25.146Z,14.13
2022-10-07T19:48:14.407Z,14.65
2022-10-07T19:51:04.756Z,14.43
2022-10-07T19:53:51.911Z,13.80
2022-10-07T19:56:40.546Z,17.00
2022-10-07T19:59:27.652Z,16.17
2022-10-07T20:02:14.976Z,15.90
2022-10-07T20:05:02.252Z,14.57
2022-10-07T20:07:49.658Z,14.35
2022-10-07T20:10:38.214Z,13.73
2022-10-07T20:13:25.439Z,15.55
2022-10-07T20:16:18.688Z,13.63
2022-10-07T20:19:08.566Z,16.67
2022-10-07T20:21:56.082Z,14.52
2022-10-07T20:24:43.306Z,12.70
2022-10-07T20:27:30.590Z,15.15
2022-10-07T20:30:18.367Z,15.63
2022-10-07T20:33:06.409Z,14.85
2022-10-07T20:35:53.562Z,13.02
2022-10-07T20:39:00.250Z,14.23
2022-10-07T20:42:09.658Z,13.38
2022-10-07T20:45:00.003Z,13.05
2022-10-07T20:47:47.386Z,16.42
2022-10-07T20:50:34.762Z,14.25
2022-10-07T20:53:21.990Z,13.20
2022-10-07T20:56:09.403Z,15.88
2022-10-07T20:58:56.800Z,12.32
2022-10-07T21:01:44.366Z,13.63
2022-10-07T21:04:31.564Z,14.27
2022-10-07T21:07:19.847Z,15.10
2022-10-07T21:10:07.147Z,13.93
2022-10-07T21:12:54.269Z,13.50
2022-10-07T21:15:41.538Z,14.05
2022-10-07T21:18:29.814Z,14.15
2022-10-07T21:21:17.735Z,18.15
2022-10-07T21:24:07.542Z,13.50
2022-10-07T21:26:54.716Z,14.07
2022-10-07T21:29:44.778Z,14.20
2022-10-07T21:32:33.871Z,13.43
2022-10-07T21:35:20.934Z,14.93
2022-10-07T21:38:08.157Z,17.58
2022-10-07T21:40:55.658Z,18.27
2022-10-07T21:43:43.980Z,16.92
2022-10-07T21:46:32.754Z,15.48
2022-10-07T21:49:19.991Z,15.60
2022-10-07T21:52:07.019Z,16.58
2022-10-07T21:54:55.320Z,15.77
2022-10-07T21:57:42.611Z,14.90
2022-10-07T22:00:29.761Z,14.00
2022-10-07T22:03:16.865Z,13.43
2022-10-07T22:06:07.086Z,17.70
2022-10-07T22:08:56.388Z,17.88
2022-10-07T22:11:43.982Z,16.30
2022-10-07T22:14:31.073Z,18.85
2022-10-07T22:17:18.158Z,14.90
2022-10-07T22:20:05.591Z,16.58
2022-10-07T22:22:56.553Z,18.20
2022-10-07T22:25:46.243Z,12.75
2022-10-07T22:28:36.300Z,14.80
2022-10-07T22:31:23.759Z,13.77
2022-10-07T22:34:33.773Z,17.35
2022-10-07T22:37:20.908Z,15.65
2022-10-07T22:40:08.573Z,16.27
2022-10-07T22:42:55.740Z,16.98
2022-10-07T22:45:43.345Z,20.42
2022-10-07T22:48:31.402Z,17.17
2022-10-07T22:51:18.782Z,16.23
2022-10-07T22:54:07.172Z,14.70
2022-10-07T22:56:54.606Z,16.40
2022-10-07T22:59:41.965Z,25.85
2022-10-07T23:02:29.134Z,20.73
2022-10-07T23:05:17.115Z,20.05
2022-10-07T23:08:04.951Z,20.95
2022-10-07T23:10:59.594Z,20.55
2022-10-07T23:13:46.846Z,22.08
2022-10-07T23:16:34.155Z,22.13
2022-10-07T23:19:21.267Z,27.63
2022-10-07T23:22:09.447Z,27.83
2022-10-07T23:24:57.406Z,23.25
2022-10-07T23:27:44.515Z,24.67
2022-10-07T23:30:31.591Z,23.77
2022-10-07T23:33:19.017Z,27.13
2022-10-07T23:36:10.475Z,23.92
2022-10-07T23:38:59.474Z,25.25
2022-10-07T23:41:46.961Z,28.23
2022-10-07T23:44:34.257Z,30.52
2022-10-07T23:47:22.541Z,24.75
2022-10-07T23:50:10.106Z,24.58
2022-10-07T23:52:57.213Z,26.23
2022-10-07T23:55:49.378Z,28.30
2022-10-07T23:58:37.847Z,25.33
